Nearby METAR Reports

 

EGSS - Stansted Airport, United Kingdom
Distance from station: NW 15mi, 24km
Updated: 28/01/2020 19:20
Clear
Clear
 Wind from WSW
Wind: WSW 9 mph , 15 km/h
Temperature: 3°C
Wind Chill: -1°C
Dew Point: 1°C
Humidity: 87%
Barometer: 998 hPa
Clouds: Clear
Visibility: 6 miles , 10 km
2020/01/28 19:20 EGSS 281920Z AUTO 25008KT 9999 NCD 03/01 Q0998
EGMC - Southend-On-Sea, United Kingdom
Distance from station: SE 15mi, 25km
Updated: 28/01/2020 19:20
Clear
Clear
 Wind from WSW
Wind: WSW 15 mph , 24 km/h
Temperature: 4°C
Wind Chill: -1°C
Dew Point: 1°C
Humidity: 81%
Barometer: 999 hPa
Summary: Clear
Visibility: greater than 7 miles , 10 km
2020/01/28 19:20 EGMC 281920Z 25013KT CAVOK 04/01 Q0999
 
EGLC - London City Airp, United Kingdom
Distance from station: SW 24mi, 39km
Updated: 28/01/2020 19:20
Clear
Clear
 Wind from W
Wind: W 17 mph , 28 km/h
Temperature: 5°C
Wind Chill: 1°C
Dew Point: 1°C
Humidity: 76%
Barometer: 1000 hPa
Clouds: Clear
Visibility: 6 miles , 10 km
2020/01/28 19:20 EGLC 281920Z AUTO 26015KT 9999 NCD 05/01 Q1000
EGUW - Wattisham Raf, United Kingdom
Distance from station: NE 34mi, 54km
Updated: 28/01/2020 19:20
Clear
Clear
 Wind from W
Wind: W 13 mph , 20 km/h
Temperature: 2°C
Wind Chill: -3°C
Dew Point: 0°C
Humidity: 87%
Barometer: 997 hPa
Summary: Clear
Visibility: greater than 7 miles , 10 km
2020/01/28 19:20 EGUW 281920Z 26011KT CAVOK 02/00 Q0997 NOSIG RMK BLU BLU
 
EGGW - Luton Airport, United Kingdom
Distance from station: WNW 37mi, 59km
Updated: 28/01/2020 19:20
Clear
Clear
 Wind from WSW
Wind: WSW 15 mph , 24 km/h
Temperature: 2°C
Wind Chill: -3°C
Dew Point: 1°C
Humidity: 93%
Barometer: 998 hPa
Clouds: Clear
Visibility: 6 miles , 10 km
2020/01/28 19:20 EGGW 281920Z AUTO 25013KT 9999 NCD 02/01 Q0998
EGWU - Northolt Raf, United Kingdom
Distance from station: WSW 40mi, 64km
Updated: 28/01/2020 19:20
Clear
Clear
 Wind from W
Wind: W 13 mph , 20 km/h
Temperature: 4°C
Wind Chill: -1°C
Dew Point: 1°C
Humidity: 81%
Barometer: 1000 hPa
Summary: Clear
Visibility: greater than 7 miles , 10 km
2020/01/28 19:20 EGWU 281920Z 26011KT CAVOK 04/01 Q1000 NOSIG RMK BLU BLU